sensor_id;sensor_type;location;lat;lon;timestamp;temperature;humidity
39751;DHT22;37579;51.074;17.004;2023-07-20T18:18:03;26.10;44.60
39751;DHT22;37579;51.074;17.004;2023-07-20T18:20:28;26.10;45.20
39751;DHT22;37579;51.074;17.004;2023-07-20T18:22:54;26.10;45.10
39751;DHT22;37579;51.074;17.004;2023-07-20T18:25:20;26.10;45.10
39751;DHT22;37579;51.074;17.004;2023-07-20T18:27:47;26.20;45.90
39751;DHT22;37579;51.074;17.004;2023-07-20T18:30:13;26.10;46.00
39751;DHT22;37579;51.074;17.004;2023-07-20T18:32:44;26.10;46.20
39751;DHT22;37579;51.074;17.004;2023-07-20T18:35:11;26.00;45.50
39751;DHT22;37579;51.074;17.004;2023-07-20T18:37:40;25.90;45.00
39751;DHT22;37579;51.074;17.004;2023-07-20T18:40:06;25.80;45.10
39751;DHT22;37579;51.074;17.004;2023-07-20T18:42:34;25.80;45.10
39751;DHT22;37579;51.074;17.004;2023-07-20T18:45:00;25.70;45.10
39751;DHT22;37579;51.074;17.004;2023-07-20T18:47:26;25.70;46.20
39751;DHT22;37579;51.074;17.004;2023-07-20T18:49:51;25.80;45.50
39751;DHT22;37579;51.074;17.004;2023-07-20T18:52:20;25.80;45.70
39751;DHT22;37579;51.074;17.004;2023-07-20T18:54:47;25.70;45.60
39751;DHT22;37579;51.074;17.004;2023-07-20T18:57:12;25.70;45.80
39751;DHT22;37579;51.074;17.004;2023-07-20T18:59:39;25.70;46.00
39751;DHT22;37579;51.074;17.004;2023-07-20T19:02:07;25.60;45.90
39751;DHT22;37579;51.074;17.004;2023-07-20T19:04:32;25.60;46.20
39751;DHT22;37579;51.074;17.004;2023-07-20T19:06:58;25.60;46.20
39751;DHT22;37579;51.074;17.004;2023-07-20T19:09:24;25.60;46.20
39751;DHT22;37579;51.074;17.004;2023-07-20T19:11:50;25.60;46.30
39751;DHT22;37579;51.074;17.004;2023-07-20T19:14:17;25.60;46.50
39751;DHT22;37579;51.074;17.004;2023-07-20T19:16:43;25.50;46.50
39751;DHT22;37579;51.074;17.004;2023-07-20T19:19:09;25.50;46.60
39751;DHT22;37579;51.074;17.004;2023-07-20T19:21:35;25.50;46.70
39751;DHT22;37579;51.074;17.004;2023-07-20T19:24:01;25.40;46.70
39751;DHT22;37579;51.074;17.004;2023-07-20T19:26:27;25.40;46.80
39751;DHT22;37579;51.074;17.004;2023-07-20T19:28:53;25.30;47.00
39751;DHT22;37579;51.074;17.004;2023-07-20T19:31:19;25.30;47.10
39751;DHT22;37579;51.074;17.004;2023-07-20T19:33:44;25.30;47.20
39751;DHT22;37579;51.074;17.004;2023-07-20T19:36:10;25.30;47.40
39751;DHT22;37579;51.074;17.004;2023-07-20T19:38:36;25.20;47.40
39751;DHT22;37579;51.074;17.004;2023-07-20T19:41:03;25.20;47.50
39751;DHT22;37579;51.074;17.004;2023-07-20T19:43:31;25.20;47.50
39751;DHT22;37579;51.074;17.004;2023-07-20T19:45:58;25.20;47.40
39751;DHT22;37579;51.074;17.004;2023-07-20T19:48:23;25.30;47.20
39751;DHT22;37579;51.074;17.004;2023-07-20T19:50:50;25.40;47.10
39751;DHT22;37579;51.074;17.004;2023-07-20T19:53:17;25.40;47.10
39751;DHT22;37579;51.074;17.004;2023-07-20T19:55:43;25.40;47.20
39751;DHT22;37579;51.074;17.004;2023-07-20T19:58:09;25.40;47.20
39751;DHT22;37579;51.074;17.004;2023-07-20T20:00:39;25.40;47.20
39751;DHT22;37579;51.074;17.004;2023-07-20T20:03:06;25.30;47.20
39751;DHT22;37579;51.074;17.004;2023-07-20T20:05:32;25.30;47.30
39751;DHT22;37579;51.074;17.004;2023-07-20T20:08:04;25.30;47.30
39751;DHT22;37579;51.074;17.004;2023-07-20T20:10:34;25.20;47.30
39751;DHT22;37579;51.074;17.004;2023-07-20T20:13:01;25.10;47.60
39751;DHT22;37579;51.074;17.004;2023-07-20T20:15:27;25.20;47.80
39751;DHT22;37579;51.074;17.004;2023-07-20T20:17:54;25.20;47.70
39751;DHT22;37579;51.074;17.004;2023-07-20T20:20:20;25.30;47.80
39751;DHT22;37579;51.074;17.004;2023-07-20T20:22:46;25.20;48.60
39751;DHT22;37579;51.074;17.004;2023-07-20T20:25:24;25.30;48.30
39751;DHT22;37579;51.074;17.004;2023-07-20T20:27:50;25.40;47.90
39751;DHT22;37579;51.074;17.004;2023-07-20T20:30:16;25.40;48.50
39751;DHT22;37579;51.074;17.004;2023-07-20T20:32:41;25.40;48.40
39751;DHT22;37579;51.074;17.004;2023-07-20T20:35:09;25.50;48.20
39751;DHT22;37579;51.074;17.004;2023-07-20T20:37:36;25.50;48.20
39751;DHT22;37579;51.074;17.004;2023-07-20T20:40:02;25.50;48.30
39751;DHT22;37579;51.074;17.004;2023-07-20T20:42:29;25.50;48.30
39751;DHT22;37579;51.074;17.004;2023-07-20T20:44:55;25.50;48.30
39751;DHT22;37579;51.074;17.004;2023-07-20T20:47:21;25.60;48.20
39751;DHT22;37579;51.074;17.004;2023-07-20T20:49:46;25.60;48.30
39751;DHT22;37579;51.074;17.004;2023-07-20T20:52:13;25.60;48.40
39751;DHT22;37579;51.074;17.004;2023-07-20T20:54:40;25.60;48.40
39751;DHT22;37579;51.074;17.004;2023-07-20T20:57:06;25.60;48.50
39751;DHT22;37579;51.074;17.004;2023-07-20T20:59:32;25.60;48.40
39751;DHT22;37579;51.074;17.004;2023-07-20T21:01:57;25.60;48.30
39751;DHT22;37579;51.074;17.004;2023-07-20T21:04:24;25.60;48.40
39751;DHT22;37579;51.074;17.004;2023-07-20T21:06:50;25.60;48.30
39751;DHT22;37579;51.074;17.004;2023-07-20T21:09:16;25.70;48.30
39751;DHT22;37579;51.074;17.004;2023-07-20T21:11:42;25.60;48.10
39751;DHT22;37579;51.074;17.004;2023-07-20T21:14:09;25.70;48.50
39751;DHT22;37579;51.074;17.004;2023-07-20T21:16:35;25.70;48.50
39751;DHT22;37579;51.074;17.004;2023-07-20T21:19:01;25.70;48.50
39751;DHT22;37579;51.074;17.004;2023-07-20T21:21:27;25.70;48.50
39751;DHT22;37579;51.074;17.004;2023-07-20T21:23:53;25.70;48.40
39751;DHT22;37579;51.074;17.004;2023-07-20T21:26:19;25.70;48.40
39751;DHT22;37579;51.074;17.004;2023-07-20T21:28:46;25.70;48.40
39751;DHT22;37579;51.074;17.004;2023-07-20T21:31:12;25.70;48.20
39751;DHT22;37579;51.074;17.004;2023-07-20T21:33:38;25.80;48.40
39751;DHT22;37579;51.074;17.004;2023-07-20T21:36:07;25.80;48.50
39751;DHT22;37579;51.074;17.004;2023-07-20T21:38:33;25.80;48.50
39751;DHT22;37579;51.074;17.004;2023-07-20T21:41:04;25.80;48.60
39751;DHT22;37579;51.074;17.004;2023-07-20T21:43:30;25.80;48.60
39751;DHT22;37579;51.074;17.004;2023-07-20T21:45:56;25.80;48.60
39751;DHT22;37579;51.074;17.004;2023-07-20T21:48:22;25.70;48.70
39751;DHT22;37579;51.074;17.004;2023-07-20T21:50:53;25.70;48.60
39751;DHT22;37579;51.074;17.004;2023-07-20T21:53:20;25.80;48.70
39751;DHT22;37579;51.074;17.004;2023-07-20T21:55:46;25.80;48.70
39751;DHT22;37579;51.074;17.004;2023-07-20T21:58:16;25.80;48.80
39751;DHT22;37579;51.074;17.004;2023-07-20T22:00:46;25.80;48.80
39751;DHT22;37579;51.074;17.004;2023-07-20T22:03:19;25.80;48.90
39751;DHT22;37579;51.074;17.004;2023-07-20T22:05:49;25.80;49.00
39751;DHT22;37579;51.074;17.004;2023-07-20T22:08:18;25.70;49.00
39751;DHT22;37579;51.074;17.004;2023-07-20T22:10:44;25.80;49.00
39751;DHT22;37579;51.074;17.004;2023-07-20T22:13:10;25.80;49.00
39751;DHT22;37579;51.074;17.004;2023-07-20T22:15:36;25.80;49.00
39751;DHT22;37579;51.074;17.004;2023-07-20T22:18:02;25.80;49.00
39751;DHT22;37579;51.074;17.004;2023-07-20T22:20:31;25.80;49.10
39751;DHT22;37579;51.074;17.004;2023-07-20T22:22:57;25.80;49.10
39751;DHT22;37579;51.074;17.004;2023-07-20T22:25:24;25.80;49.10
39751;DHT22;37579;51.074;17.004;2023-07-20T22:27:50;25.80;49.10
39751;DHT22;37579;51.074;17.004;2023-07-20T22:30:16;25.70;49.10
39751;DHT22;37579;51.074;17.004;2023-07-20T22:32:42;25.80;49.20
39751;DHT22;37579;51.074;17.004;2023-07-20T22:35:09;25.80;49.20
39751;DHT22;37579;51.074;17.004;2023-07-20T22:37:39;25.70;49.20
39751;DHT22;37579;51.074;17.004;2023-07-20T22:40:06;25.80;49.20
39751;DHT22;37579;51.074;17.004;2023-07-20T22:42:35;25.70;49.20
39751;DHT22;37579;51.074;17.004;2023-07-20T22:45:04;25.70;49.30
39751;DHT22;37579;51.074;17.004;2023-07-20T22:47:31;25.70;49.20
39751;DHT22;37579;51.074;17.004;2023-07-20T22:50:02;25.70;49.30
39751;DHT22;37579;51.074;17.004;2023-07-20T22:52:28;25.70;49.30
39751;DHT22;37579;51.074;17.004;2023-07-20T22:54:55;25.70;49.30
39751;DHT22;37579;51.074;17.004;2023-07-20T22:57:21;25.70;49.40
39751;DHT22;37579;51.074;17.004;2023-07-20T22:59:49;25.70;49.40
39751;DHT22;37579;51.074;17.004;2023-07-20T23:02:15;25.70;49.40
39751;DHT22;37579;51.074;17.004;2023-07-20T23:04:42;25.80;49.40
39751;DHT22;37579;51.074;17.004;2023-07-20T23:07:08;25.70;49.50
39751;DHT22;37579;51.074;17.004;2023-07-20T23:09:34;25.70;49.50
39751;DHT22;37579;51.074;17.004;2023-07-20T23:12:00;25.70;49.50
39751;DHT22;37579;51.074;17.004;2023-07-20T23:14:27;25.70;50.20
39751;DHT22;37579;51.074;17.004;2023-07-20T23:16:53;25.70;49.60
39751;DHT22;37579;51.074;17.004;2023-07-20T23:19:19;25.70;49.60
39751;DHT22;37579;51.074;17.004;2023-07-20T23:21:46;25.70;49.60
39751;DHT22;37579;51.074;17.004;2023-07-20T23:24:12;25.70;49.60
39751;DHT22;37579;51.074;17.004;2023-07-20T23:26:41;25.70;49.70
39751;DHT22;37579;51.074;17.004;2023-07-20T23:29:08;25.70;49.60
39751;DHT22;37579;51.074;17.004;2023-07-20T23:31:34;25.70;49.70
39751;DHT22;37579;51.074;17.004;2023-07-20T23:34:03;25.60;49.70
39751;DHT22;37579;51.074;17.004;2023-07-20T23:36:29;25.70;49.80
39751;DHT22;37579;51.074;17.004;2023-07-20T23:38:55;25.70;49.70
39751;DHT22;37579;51.074;17.004;2023-07-20T23:41:21;25.70;49.70
39751;DHT22;37579;51.074;17.004;2023-07-20T23:43:51;25.60;49.70
39751;DHT22;37579;51.074;17.004;2023-07-20T23:46:19;25.70;49.80
39751;DHT22;37579;51.074;17.004;2023-07-20T23:48:48;25.70;49.90
39751;DHT22;37579;51.074;17.004;2023-07-20T23:51:15;25.70;49.80
39751;DHT22;37579;51.074;17.004;2023-07-20T23:53:45;25.70;49.90
39751;DHT22;37579;51.074;17.004;2023-07-20T23:56:14;25.70;49.80
39751;DHT22;37579;51.074;17.004;2023-07-20T23:58:41;25.60;49.90
